Time;durP1;ratioP1;P1;durP2;ratioP2;P2;SDS_P1;SDS_P2;PMS_P1;PMS_P2;Temp;Humidity;BMP_temperature;BMP_pressure;BME280_temperature;BME280_humidity;BME280_pressure;Samples;Min_cycle;Max_cycle;Signal;HPM_P1;HPM_P2
2022/03/25 00:00:19;;;;;;;37.53;34.25;;;7.70;61.60;;;;;;5091779;28;20727;-72
2022/03/25 00:02:47;;;;;;;38.67;35.38;;;7.60;61.80;;;;;;5092071;28;20223;-72
2022/03/25 00:05:13;;;;;;;38.28;35.10;;;7.60;61.90;;;;;;5092128;28;20280;-72
2022/03/25 00:07:41;;;;;;;38.75;35.70;;;7.60;62.20;;;;;;5092199;28;20632;-72
2022/03/25 00:10:08;;;;;;;37.22;34.10;;;7.50;62.50;;;;;;5092416;28;20212;-72
2022/03/25 00:12:36;;;;;;;38.70;35.15;;;7.50;62.60;;;;;;5092155;28;20220;-72
2022/03/25 00:15:03;;;;;;;39.70;36.30;;;7.50;62.50;;;;;;5091949;28;20200;-72
2022/03/25 00:17:31;;;;;;;37.25;34.45;;;7.50;62.40;;;;;;5091908;28;20286;-72
2022/03/25 00:19:58;;;;;;;36.75;33.65;;;7.40;62.50;;;;;;5091703;28;20652;-72
2022/03/25 00:22:25;;;;;;;37.70;34.58;;;7.40;62.70;;;;;;5094231;28;20302;-72
2022/03/25 00:24:52;;;;;;;38.85;35.20;;;7.30;62.90;;;;;;5095819;28;20201;-72
2022/03/25 00:27:19;;;;;;;38.30;35.05;;;7.30;63.00;;;;;;5095644;28;20557;-72
2022/03/25 00:29:46;;;;;;;36.83;33.75;;;7.30;63.20;;;;;;5095485;28;20682;-72
2022/03/25 00:32:13;;;;;;;38.95;35.45;;;7.30;63.10;;;;;;5095527;28;20222;-72
2022/03/25 00:34:41;;;;;;;38.78;35.25;;;7.40;62.80;;;;;;5095610;28;20192;-72
2022/03/25 00:37:08;;;;;;;37.17;34.03;;;7.30;63.20;;;;;;5095473;28;20306;-72
2022/03/25 00:39:35;;;;;;;38.47;35.15;;;7.20;63.50;;;;;;5095174;28;20264;-72
2022/03/25 00:42:03;;;;;;;36.70;33.70;;;7.20;64.00;;;;;;5095586;28;20220;-72
2022/03/25 00:44:31;;;;;;;38.03;34.72;;;7.10;64.10;;;;;;5095805;28;20261;-72
2022/03/25 00:46:58;;;;;;;40.03;36.65;;;7.10;63.90;;;;;;5095727;28;20210;-72
2022/03/25 00:49:25;;;;;;;37.78;34.33;;;7.10;63.80;;;;;;5095066;28;20241;-72
2022/03/25 00:51:54;;;;;;;37.92;34.63;;;7.10;63.70;;;;;;5095074;28;20715;-72
2022/03/25 00:54:21;;;;;;;39.17;35.88;;;7.00;64.00;;;;;;5095225;28;20199;-72
2022/03/25 00:56:48;;;;;;;39.30;35.38;;;6.90;64.30;;;;;;5094853;28;20209;-72
2022/03/25 00:59:15;;;;;;;38.70;35.53;;;7.00;64.10;;;;;;5094973;28;20212;-72
2022/03/25 01:01:42;;;;;;;40.40;37.10;;;7.00;63.80;;;;;;5094648;28;20196;-72
2022/03/25 01:04:09;;;;;;;38.55;35.50;;;7.00;63.90;;;;;;5095033;28;20722;-72
2022/03/25 01:06:36;;;;;;;38.47;35.28;;;7.00;64.10;;;;;;5094843;28;20192;-72
2022/03/25 01:09:05;;;;;;;38.55;35.20;;;6.90;64.20;;;;;;5094762;28;20228;-72
2022/03/25 01:11:35;;;;;;;40.13;36.63;;;6.90;64.50;;;;;;5094406;28;20199;-72
2022/03/25 01:14:02;;;;;;;38.28;34.88;;;6.90;64.40;;;;;;5094696;28;20200;-72
2022/03/25 01:16:29;;;;;;;38.45;35.05;;;6.90;64.30;;;;;;5094645;28;20211;-72
2022/03/25 01:18:56;;;;;;;38.45;34.95;;;6.80;64.60;;;;;;5094405;28;20215;-72
2022/03/25 01:21:23;;;;;;;38.55;35.15;;;6.70;64.70;;;;;;5094397;28;20199;-72
2022/03/25 01:23:50;;;;;;;38.40;35.10;;;6.70;64.90;;;;;;5094570;28;20328;-72
2022/03/25 01:26:18;;;;;;;39.67;36.08;;;6.70;64.90;;;;;;5094406;28;20206;-72
2022/03/25 01:28:45;;;;;;;39.50;36.20;;;6.60;65.00;;;;;;5094251;28;20227;-72
2022/03/25 01:31:13;;;;;;;40.33;36.85;;;6.60;65.20;;;;;;5094251;28;20286;-72
2022/03/25 01:33:40;;;;;;;39.35;35.95;;;6.50;65.10;;;;;;5093260;28;20219;-72
2022/03/25 01:36:07;;;;;;;38.75;35.55;;;6.60;64.80;;;;;;5094273;28;20204;-72
2022/03/25 01:38:34;;;;;;;39.22;35.95;;;6.60;64.70;;;;;;5094241;28;20283;-72
2022/03/25 01:41:02;;;;;;;42.38;38.13;;;6.50;64.80;;;;;;5093864;28;20219;-72
2022/03/25 01:43:30;;;;;;;40.60;37.00;;;6.50;65.00;;;;;;5094117;28;20215;-72
2022/03/25 01:45:57;;;;;;;38.65;35.35;;;6.50;65.20;;;;;;5094155;28;20566;-72
2022/03/25 01:48:24;;;;;;;39.22;35.65;;;6.50;65.50;;;;;;5094023;28;20210;-72
2022/03/25 01:50:51;;;;;;;38.72;35.40;;;6.50;65.70;;;;;;5093831;28;20196;-72
2022/03/25 01:53:21;;;;;;;38.70;35.47;;;6.40;66.20;;;;;;5093773;28;20211;-72
2022/03/25 01:55:51;;;;;;;40.75;37.05;;;6.30;66.50;;;;;;5093791;28;20196;-72
2022/03/25 01:58:18;;;;;;;40.38;36.90;;;6.40;66.20;;;;;;5093812;28;20202;-72
2022/03/25 02:00:47;;;;;;;39.28;35.85;;;6.40;65.90;;;;;;5093444;28;20219;-72
2022/03/25 02:03:14;;;;;;;40.08;36.67;;;6.40;65.80;;;;;;5093842;28;20252;-72
2022/03/25 02:05:41;;;;;;;37.67;34.47;;;6.30;66.20;;;;;;5093663;28;20320;-72
2022/03/25 02:08:09;;;;;;;38.83;35.42;;;6.20;66.70;;;;;;5094036;28;20199;-72
2022/03/25 02:10:36;;;;;;;40.15;36.55;;;6.20;66.80;;;;;;5093410;28;20199;-72
2022/03/25 02:13:04;;;;;;;41.55;37.85;;;6.20;66.90;;;;;;5093525;28;20234;-72
2022/03/25 02:15:38;;;;;;;40.35;36.72;;;6.20;66.90;;;;;;5093526;28;20278;-72
2022/03/25 02:18:09;;;;;;;38.78;35.50;;;6.10;67.10;;;;;;5093411;28;20198;-72
2022/03/25 02:20:37;;;;;;;39.55;36.15;;;6.10;67.20;;;;;;5093160;28;20219;-72
2022/03/25 02:23:07;;;;;;;41.50;37.65;;;6.20;66.90;;;;;;5093335;28;20255;-72
2022/03/25 02:25:34;;;;;;;39.30;35.83;;;6.10;67.00;;;;;;5093347;28;20709;-72
2022/03/25 02:28:04;;;;;;;43.05;38.92;;;6.00;67.50;;;;;;5093199;28;20567;-72
2022/03/25 02:30:32;;;;;;;41.70;37.83;;;6.00;67.80;;;;;;5093107;28;20194;-72
2022/03/25 02:33:01;;;;;;;39.95;36.20;;;5.90;68.00;;;;;;5093099;28;20692;-72
2022/03/25 02:35:42;;;;;;;41.20;37.75;;;5.90;68.00;;;;;;5093100;28;20195;-72
2022/03/25 02:38:12;;;;;;;41.55;37.65;;;5.90;68.20;;;;;;5093151;28;20203;-72
2022/03/25 02:40:39;;;;;;;42.50;38.50;;;5.80;68.40;;;;;;5092919;28;20218;-72
2022/03/25 02:43:07;;;;;;;41.55;37.95;;;5.80;68.50;;;;;;5093026;28;20302;-72
2022/03/25 02:45:34;;;;;;;40.15;36.60;;;5.80;68.40;;;;;;5092585;28;20194;-72
2022/03/25 02:48:02;;;;;;;39.47;35.97;;;5.80;68.60;;;;;;5092956;28;20203;-72
2022/03/25 02:50:30;;;;;;;42.00;37.67;;;5.70;68.70;;;;;;5092764;28;20221;-72
2022/03/25 02:52:57;;;;;;;42.15;38.15;;;5.80;68.80;;;;;;5092925;28;20304;-72
2022/03/25 02:55:26;;;;;;;41.95;38.08;;;5.90;68.40;;;;;;5092762;28;20285;-72
2022/03/25 02:57:53;;;;;;;42.08;38.30;;;5.90;68.20;;;;;;5092820;28;20206;-72
2022/03/25 03:00:20;;;;;;;41.10;37.40;;;5.90;68.30;;;;;;5092403;28;20215;-72
2022/03/25 03:02:48;;;;;;;41.72;38.00;;;5.80;68.60;;;;;;5092862;28;20306;-72
2022/03/25 03:05:17;;;;;;;44.13;39.90;;;5.70;69.10;;;;;;5092926;28;20191;-72
2022/03/25 03:07:45;;;;;;;42.08;38.28;;;5.60;69.10;;;;;;5092769;28;20213;-72
2022/03/25 03:10:13;;;;;;;40.67;36.95;;;5.60;69.30;;;;;;5092504;28;20248;-72
2022/03/25 03:12:42;;;;;;;42.05;38.15;;;5.50;69.40;;;;;;5092708;28;20220;-72
2022/03/25 03:15:10;;;;;;;42.20;38.33;;;5.50;69.40;;;;;;5092780;28;20219;-72
2022/03/25 03:17:36;;;;;;;39.55;35.83;;;5.50;69.40;;;;;;5092648;28;20290;-72
2022/03/25 03:20:05;;;;;;;41.72;37.85;;;5.40;69.60;;;;;;5092195;28;20882;-72
2022/03/25 03:22:32;;;;;;;41.13;37.50;;;5.40;69.70;;;;;;5092697;28;20238;-72
2022/03/25 03:24:59;;;;;;;41.30;37.50;;;5.40;69.90;;;;;;5092616;28;20308;-72
2022/03/25 03:27:26;;;;;;;41.50;37.70;;;5.50;69.60;;;;;;5092465;28;20663;-72
2022/03/25 03:29:54;;;;;;;40.83;37.17;;;5.50;69.50;;;;;;5092421;28;20202;-72
2022/03/25 03:32:21;;;;;;;40.42;36.72;;;5.50;69.60;;;;;;5092554;28;20219;-72
2022/03/25 03:34:48;;;;;;;41.28;37.65;;;5.50;69.70;;;;;;5092400;28;20203;-72
2022/03/25 03:37:14;;;;;;;42.47;38.65;;;5.50;69.70;;;;;;5092443;28;20196;-72
2022/03/25 03:39:41;;;;;;;41.55;37.75;;;5.40;69.80;;;;;;5092091;28;20290;-72
2022/03/25 03:42:08;;;;;;;39.33;35.53;;;5.30;70.20;;;;;;5092337;28;20229;-72
2022/03/25 03:44:36;;;;;;;42.58;38.35;;;5.20;70.50;;;;;;5092334;28;20601;-72
2022/03/25 03:47:06;;;;;;;40.72;36.92;;;5.20;70.70;;;;;;5092349;28;20564;-72
2022/03/25 03:49:33;;;;;;;40.92;37.28;;;5.10;70.80;;;;;;5092145;28;20206;-72
2022/03/25 03:52:00;;;;;;;42.53;38.22;;;5.20;70.50;;;;;;5092273;28;20222;-72
2022/03/25 03:54:27;;;;;;;41.55;37.65;;;5.20;70.50;;;;;;5092206;28;20300;-72
2022/03/25 03:56:55;;;;;;;43.30;39.25;;;5.10;70.90;;;;;;5093526;28;20610;-72
2022/03/25 03:59:21;;;;;;;41.65;37.85;;;5.10;71.10;;;;;;5096083;28;20226;-72
2022/03/25 04:01:49;;;;;;;43.35;39.40;;;5.00;71.20;;;;;;5095856;28;20230;-72
2022/03/25 04:04:18;;;;;;;42.50;38.75;;;5.00;71.20;;;;;;5096083;28;20199;-72
2022/03/25 04:06:45;;;;;;;43.85;39.70;;;5.00;71.30;;;;;;5095940;28;20204;-72
2022/03/25 04:09:11;;;;;;;41.83;38.13;;;5.00;71.50;;;;;;5095830;28;20294;-72
2022/03/25 04:11:38;;;;;;;42.22;38.05;;;5.00;71.50;;;;;;5095841;28;20274;-72
2022/03/25 04:14:05;;;;;;;43.85;39.55;;;5.00;71.40;;;;;;5095802;28;20195;-72
2022/03/25 04:16:32;;;;;;;42.90;38.92;;;5.00;71.50;;;;;;5095679;28;20557;-72
2022/03/25 04:18:59;;;;;;;43.38;39.65;;;4.90;71.60;;;;;;5095650;28;20203;-72
2022/03/25 04:21:28;;;;;;;43.60;39.90;;;4.90;71.70;;;;;;5095403;28;20703;-72
2022/03/25 04:23:55;;;;;;;44.33;40.42;;;4.90;71.80;;;;;;5095755;28;20290;-72
2022/03/25 04:26:21;;;;;;;44.35;39.97;;;4.90;71.70;;;;;;5095661;28;20199;-72
2022/03/25 04:28:48;;;;;;;42.78;38.67;;;4.90;71.80;;;;;;5095502;28;20246;-72
2022/03/25 04:31:15;;;;;;;42.45;38.60;;;4.90;71.80;;;;;;5095402;28;20194;-72
2022/03/25 04:33:42;;;;;;;41.53;37.72;;;4.80;71.90;;;;;;5095419;28;20309;-72
2022/03/25 04:36:09;;;;;;;42.90;38.58;;;4.80;72.00;;;;;;5095367;28;20599;-72
2022/03/25 04:38:37;;;;;;;43.92;40.03;;;4.80;72.00;;;;;;5095302;28;20255;-72
2022/03/25 04:41:04;;;;;;;43.05;38.67;;;4.90;71.60;;;;;;5095113;28;20306;-72
2022/03/25 04:43:31;;;;;;;45.60;41.80;;;4.90;71.40;;;;;;5096306;28;20297;-72
2022/03/25 04:45:58;;;;;;;44.40;39.80;;;5.00;71.40;;;;;;5096133;28;20279;-72
2022/03/25 04:48:25;;;;;;;42.10;38.25;;;4.90;71.70;;;;;;5095171;28;20199;-72
2022/03/25 04:50:52;;;;;;;41.38;37.75;;;4.80;72.10;;;;;;5094874;28;20295;-72
2022/03/25 04:53:19;;;;;;;45.15;40.80;;;4.70;72.60;;;;;;5095114;28;20723;-72
2022/03/25 04:55:47;;;;;;;42.67;38.88;;;4.70;72.70;;;;;;5095007;28;20627;-72
2022/03/25 04:58:14;;;;;;;43.42;39.13;;;4.70;72.60;;;;;;5095059;28;20451;-72
2022/03/25 05:00:42;;;;;;;40.92;37.65;;;4.70;72.60;;;;;;5095022;28;20223;-72
2022/03/25 05:03:09;;;;;;;44.17;40.05;;;4.70;72.50;;;;;;5095045;28;20225;-72
2022/03/25 05:05:37;;;;;;;46.17;41.65;;;4.50;72.60;;;;;;5094947;28;20196;-72
2022/03/25 05:08:04;;;;;;;45.00;40.83;;;4.40;73.00;;;;;;5095510;28;20626;-72
2022/03/25 05:10:31;;;;;;;46.72;42.65;;;4.50;73.30;;;;;;5095592;28;20725;-71
2022/03/25 05:12:59;;;;;;;43.53;39.58;;;4.50;73.60;;;;;;5094658;28;20250;-71
2022/03/25 05:15:26;;;;;;;42.67;39.08;;;4.50;73.70;;;;;;5094630;28;20575;-71
2022/03/25 05:17:53;;;;;;;44.47;40.47;;;4.50;73.50;;;;;;5094616;28;20561;-72
2022/03/25 05:20:22;;;;;;;42.78;38.75;;;4.60;73.20;;;;;;5094373;28;20215;-71
2022/03/25 05:22:50;;;;;;;44.38;39.78;;;4.60;73.60;;;;;;5094359;28;20219;-72
2022/03/25 05:25:17;;;;;;;45.47;41.40;;;4.60;73.30;;;;;;5094526;28;20576;-71
2022/03/25 05:27:49;;;;;;;45.03;40.63;;;4.60;73.00;;;;;;5094575;28;20680;-71
2022/03/25 05:30:20;;;;;;;44.17;39.88;;;4.70;72.70;;;;;;5094445;28;20199;-71
2022/03/25 05:32:47;;;;;;;47.10;42.72;;;4.70;72.60;;;;;;5094407;28;20226;-71
2022/03/25 05:35:14;;;;;;;44.45;40.40;;;4.60;72.60;;;;;;5094424;28;20191;-71
2022/03/25 05:37:41;;;;;;;44.13;40.15;;;4.70;72.60;;;;;;5094308;28;20200;-71
2022/03/25 05:40:10;;;;;;;44.28;40.08;;;4.70;72.50;;;;;;5093937;28;20203;-72
2022/03/25 05:42:37;;;;;;;45.40;41.20;;;4.70;72.50;;;;;;5094125;28;20310;-71
2022/03/25 05:45:06;;;;;;;45.30;41.20;;;4.80;72.50;;;;;;5093901;28;20205;-71
2022/03/25 05:47:35;;;;;;;43.65;39.72;;;4.80;72.40;;;;;;5094140;28;20293;-72
2022/03/25 05:50:02;;;;;;;46.92;42.70;;;4.90;72.50;;;;;;5093792;28;20198;-72
2022/03/25 05:52:29;;;;;;;46.13;41.80;;;4.80;72.70;;;;;;5094043;28;20298;-71
2022/03/25 05:54:56;;;;;;;45.28;40.92;;;4.60;73.10;;;;;;5093799;28;20202;-71
2022/03/25 05:57:23;;;;;;;45.35;41.10;;;4.70;73.20;;;;;;5094258;28;20206;-72
2022/03/25 05:59:50;;;;;;;46.55;42.35;;;4.70;73.20;;;;;;5094079;28;20196;-72
2022/03/25 06:02:17;;;;;;;46.80;42.60;;;4.70;72.90;;;;;;5093608;28;20216;-73
2022/03/25 06:04:46;;;;;;;47.15;42.55;;;4.70;72.70;;;;;;5093843;28;20286;-72
2022/03/25 06:07:13;;;;;;;47.22;42.10;;;4.70;72.50;;;;;;5093607;28;20649;-72
2022/03/25 06:09:40;;;;;;;46.72;42.38;;;4.70;72.30;;;;;;5093504;28;20634;-72
2022/03/25 06:12:08;;;;;;;44.78;40.58;;;4.90;72.10;;;;;;5093574;28;20223;-72
2022/03/25 06:14:34;;;;;;;49.28;44.75;;;5.00;71.70;;;;;;5093703;28;20208;-72
2022/03/25 06:17:02;;;;;;;45.20;40.90;;;5.10;71.50;;;;;;5093790;28;20207;-72
2022/03/25 06:19:29;;;;;;;49.00;44.30;;;5.20;71.30;;;;;;5092665;28;20614;-73
2022/03/25 06:21:58;;;;;;;48.40;43.40;;;5.40;70.70;;;;;;5093334;28;20216;-72
2022/03/25 06:24:25;;;;;;;44.83;40.53;;;5.50;70.50;;;;;;5093375;28;20287;-72
2022/03/25 06:26:52;;;;;;;46.20;41.75;;;5.60;70.30;;;;;;5093337;28;20196;-73
2022/03/25 06:29:19;;;;;;;46.28;41.88;;;5.70;70.20;;;;;;5093179;28;20196;-73
2022/03/25 06:31:47;;;;;;;46.95;41.95;;;5.80;69.70;;;;;;5093239;28;20286;-72
2022/03/25 06:34:20;;;;;;;45.08;40.92;;;5.90;69.10;;;;;;5093474;28;20192;-72
2022/03/25 06:36:47;;;;;;;45.28;40.97;;;5.90;69.00;;;;;;5093104;28;20192;-72
2022/03/25 06:39:15;;;;;;;47.28;42.97;;;5.90;69.10;;;;;;5092946;28;20229;-72
2022/03/25 06:41:42;;;;;;;43.58;39.38;;;6.00;69.00;;;;;;5092995;28;20215;-72
2022/03/25 06:44:10;;;;;;;43.05;39.30;;;6.20;68.90;;;;;;5093171;28;20203;-73
2022/03/25 06:46:37;;;;;;;44.53;40.40;;;6.30;68.60;;;;;;5093105;28;20282;-73
2022/03/25 06:49:05;;;;;;;45.97;41.47;;;6.40;68.40;;;;;;5092954;28;20225;-73
2022/03/25 06:51:32;;;;;;;45.40;41.20;;;6.60;68.00;;;;;;5092554;28;20294;-73
2022/03/25 06:54:00;;;;;;;45.10;40.95;;;6.60;67.70;;;;;;5092914;28;20679;-73
2022/03/25 06:56:29;;;;;;;48.75;43.70;;;6.60;67.70;;;;;;5092733;28;20211;-73
2022/03/25 06:58:56;;;;;;;47.63;42.92;;;6.70;67.50;;;;;;5092882;28;20534;-73
2022/03/25 07:01:24;;;;;;;44.20;39.45;;;6.90;67.10;;;;;;5092386;28;20272;-73
2022/03/25 07:03:52;;;;;;;46.25;41.75;;;7.00;66.70;;;;;;5092649;28;20304;-73
2022/03/25 07:06:23;;;;;;;47.28;42.78;;;7.10;65.90;;;;;;5092683;28;20203;-73
2022/03/25 07:08:54;;;;;;;45.88;41.40;;;7.10;66.00;;;;;;5092703;28;20303;-72
2022/03/25 07:11:22;;;;;;;47.83;43.60;;;7.30;65.90;;;;;;5092598;28;20202;-73
2022/03/25 07:13:51;;;;;;;48.05;43.70;;;7.40;65.30;;;;;;5092644;28;20224;-73
2022/03/25 07:16:18;;;;;;;46.00;41.88;;;7.60;64.90;;;;;;5092546;28;20542;-73
2022/03/25 07:18:45;;;;;;;49.42;45.08;;;7.80;64.40;;;;;;5092382;28;20299;-73
2022/03/25 07:21:13;;;;;;;48.55;44.17;;;7.90;64.00;;;;;;5092420;28;20256;-73
2022/03/25 07:23:40;;;;;;;49.20;44.45;;;8.00;63.60;;;;;;5092502;28;20242;-73
2022/03/25 07:26:07;;;;;;;47.03;42.53;;;8.20;63.30;;;;;;5092652;28;20282;-73
2022/03/25 07:28:34;;;;;;;49.40;44.22;;;8.30;63.30;;;;;;5092613;28;20197;-73
2022/03/25 07:31:02;;;;;;;47.60;42.70;;;8.40;63.40;;;;;;5092342;28;20205;-73
2022/03/25 07:33:29;;;;;;;46.58;42.03;;;8.50;62.40;;;;;;5096585;28;20223;-73
2022/03/25 07:35:57;;;;;;;47.63;43.30;;;8.70;62.00;;;;;;5096679;28;20198;-73
2022/03/25 07:38:24;;;;;;;46.33;41.92;;;8.80;61.60;;;;;;5096462;28;20195;-73
2022/03/25 07:40:51;;;;;;;49.15;44.35;;;8.90;61.00;;;;;;5096230;28;20301;-73
2022/03/25 07:43:18;;;;;;;48.05;43.25;;;9.00;61.20;;;;;;5096339;28;20222;-73
2022/03/25 07:45:45;;;;;;;49.67;45.03;;;9.10;60.80;;;;;;5096464;28;20654;-73
2022/03/25 07:48:13;;;;;;;49.90;44.92;;;9.30;60.20;;;;;;5096432;28;20195;-73
2022/03/25 07:50:40;;;;;;;49.22;44.47;;;9.40;60.10;;;;;;5096195;28;20200;-73
2022/03/25 07:53:07;;;;;;;50.70;45.35;;;9.50;59.60;;;;;;5096169;28;20697;-73
2022/03/25 07:55:34;;;;;;;49.05;44.08;;;9.60;59.20;;;;;;5096095;28;20287;-73
2022/03/25 07:58:01;;;;;;;49.22;44.40;;;9.70;58.70;;;;;;5096284;28;20224;-73
2022/03/25 08:00:28;;;;;;;49.67;44.47;;;9.80;58.70;;;;;;5095841;28;20256;-72
2022/03/25 08:02:55;;;;;;;52.40;46.60;;;10.00;58.30;;;;;;5096045;28;20616;-73
2022/03/25 08:05:24;;;;;;;50.00;45.38;;;10.00;57.70;;;;;;5096000;28;20196;-73
2022/03/25 08:07:52;;;;;;;50.35;45.13;;;10.10;57.50;;;;;;5096008;28;20199;-73
2022/03/25 08:10:21;;;;;;;50.13;45.42;;;10.10;57.20;;;;;;5095810;28;20233;-73
2022/03/25 08:12:49;;;;;;;50.28;44.03;;;10.30;57.00;;;;;;5095815;28;20252;-73
2022/03/25 08:15:16;;;;;;;50.22;44.75;;;10.50;56.60;;;;;;5095934;28;20201;-73
2022/03/25 08:17:48;;;;;;;51.63;46.63;;;10.60;56.00;;;;;;5095876;28;20200;-73
2022/03/25 08:20:19;;;;;;;49.83;44.97;;;10.60;55.60;;;;;;5095509;28;20200;-73
2022/03/25 08:22:48;;;;;;;50.90;45.97;;;10.80;55.50;;;;;;5095699;28;20487;-73
2022/03/25 08:28:01;;;;;;;51.00;45.73;;;11.00;55.30;;;;;;5095767;28;20430;-73
2022/03/25 08:30:28;;;;;;;51.20;46.17;;;11.00;54.70;;;;;;5095599;28;20453;-73
2022/03/25 08:32:56;;;;;;;50.07;45.13;;;11.20;54.20;;;;;;5095571;28;20553;-73
2022/03/25 08:35:24;;;;;;;51.63;46.03;;;11.30;54.20;;;;;;5095475;28;20452;-73
2022/03/25 08:37:53;;;;;;;54.50;49.60;;;11.30;53.90;;;;;;5095385;28;20457;-73
2022/03/25 08:40:20;;;;;;;51.60;46.60;;;11.40;53.80;;;;;;5095356;28;20485;-73
2022/03/25 08:42:47;;;;;;;50.63;45.60;;;11.60;53.40;;;;;;5094622;28;20564;-73
2022/03/25 08:45:15;;;;;;;52.67;47.07;;;11.70;53.20;;;;;;5095592;28;20846;-73
2022/03/25 08:47:42;;;;;;;49.43;44.63;;;11.70;52.60;;;;;;5095348;28;21013;-73
2022/03/25 08:50:12;;;;;;;53.10;47.80;;;11.80;52.60;;;;;;5094968;28;20941;-73
2022/03/25 08:52:40;;;;;;;51.57;46.57;;;11.90;52.50;;;;;;5095353;28;20465;-73
2022/03/25 08:55:09;;;;;;;51.60;46.50;;;12.10;52.10;;;;;;5095190;28;20448;-73
2022/03/25 08:57:37;;;;;;;51.60;46.20;;;12.20;51.40;;;;;;5095203;28;20943;-73
2022/03/25 09:00:05;;;;;;;51.30;46.00;;;12.30;50.80;;;;;;5094702;28;20503;-73
2022/03/25 09:02:32;;;;;;;53.43;47.80;;;12.40;50.70;;;;;;5094994;28;20473;-73
2022/03/25 09:04:59;;;;;;;51.53;46.23;;;12.40;50.50;;;;;;5094845;28;20460;-73
2022/03/25 09:07:26;;;;;;;51.97;46.63;;;12.60;50.00;;;;;;5094903;28;20967;-73
2022/03/25 09:09:53;;;;;;;52.97;47.67;;;12.70;49.40;;;;;;5094658;28;20456;-73
2022/03/25 09:12:21;;;;;;;52.23;46.73;;;12.70;49.20;;;;;;5094995;28;21018;-73
2022/03/25 09:14:48;;;;;;;53.03;47.60;;;12.80;49.20;;;;;;5094825;28;20452;-73
2022/03/25 09:17:15;;;;;;;50.23;45.37;;;12.90;48.90;;;;;;5094670;28;20533;-73
2022/03/25 09:19:43;;;;;;;52.63;47.07;;;13.00;48.60;;;;;;5094317;28;20465;-73
2022/03/25 09:22:10;;;;;;;51.53;46.67;;;13.00;48.50;;;;;;5094391;28;20610;-73
2022/03/25 09:24:37;;;;;;;53.90;48.20;;;13.10;48.10;;;;;;5094584;28;20882;-73
2022/03/25 09:27:05;;;;;;;52.03;47.13;;;13.20;48.00;;;;;;5094458;28;20934;-73
2022/03/25 09:29:33;;;;;;;53.73;48.33;;;13.40;47.50;;;;;;5094330;28;20821;-73
2022/03/25 09:32:00;;;;;;;53.17;47.87;;;13.60;46.90;;;;;;5094387;28;20573;-73
2022/03/25 09:37:11;;;;;;;52.30;47.50;;;13.70;46.60;;;;;;5094337;28;20506;-73
2022/03/25 09:39:38;;;;;;;54.13;48.60;;;13.90;46.50;;;;;;5094067;28;20449;-73
2022/03/25 09:42:06;;;;;;;52.73;47.43;;;14.00;46.30;;;;;;5094161;28;21025;-73
2022/03/25 09:44:35;;;;;;;52.97;47.63;;;14.00;46.00;;;;;;5094227;28;20464;-73
2022/03/25 09:47:02;;;;;;;54.57;48.93;;;14.20;45.40;;;;;;5094158;28;20453;-73
2022/03/25 09:49:29;;;;;;;53.53;48.53;;;14.30;45.00;;;;;;5093863;28;20946;-73
2022/03/25 09:51:57;;;;;;;55.33;49.77;;;14.30;44.70;;;;;;5094037;28;20462;-73
2022/03/25 09:54:24;;;;;;;55.57;49.77;;;14.30;44.70;;;;;;5092990;28;20497;-73
2022/03/25 09:56:51;;;;;;;54.53;48.70;;;14.50;44.50;;;;;;5093646;28;20549;-73
2022/03/25 09:59:19;;;;;;;52.53;47.43;;;14.50;44.40;;;;;;5093748;28;21013;-73
2022/03/25 10:01:47;;;;;;;54.67;49.10;;;14.70;43.90;;;;;;5093671;28;20532;-73
2022/03/25 10:04:37;;;;;;;57.23;52.00;;;14.70;43.60;;;;;;5093695;28;20527;-73
2022/03/25 10:07:16;;;;;;;54.17;49.17;;;14.80;42.60;;;;;;5093647;28;20460;-71
2022/03/25 10:09:43;;;;;;;54.60;48.80;;;14.80;42.40;;;;;;5093607;28;20468;-71
2022/03/25 10:12:28;;;;;;;55.90;50.40;;;14.90;42.40;;;;;;5093413;28;20556;-72
2022/03/25 10:15:11;;;;;;;52.80;48.10;;;14.90;41.50;;;;;;5093604;28;20450;-73
2022/03/25 10:17:57;;;;;;;56.13;50.93;;;14.90;41.70;;;;;;5093504;28;20808;-73
2022/03/25 10:20:27;;;;;;;53.40;48.40;;;15.00;41.90;;;;;;5093226;28;20457;-73
2022/03/25 10:23:02;;;;;;;52.50;47.40;;;15.00;41.00;;;;;;5093380;28;20602;-73
2022/03/25 10:25:38;;;;;;;55.10;49.70;;;15.20;39.90;;;;;;5093467;28;20507;-73
2022/03/25 10:28:06;;;;;;;55.30;50.00;;;15.40;40.60;;;;;;5093512;28;20445;-73
2022/03/25 10:30:41;;;;;;;55.03;49.73;;;15.40;40.40;;;;;;5093085;28;20450;-73
2022/03/25 10:33:23;;;;;;;53.77;48.90;;;15.50;40.00;;;;;;5093475;28;20977;-73
2022/03/25 10:36:02;;;;;;;56.57;51.10;;;15.50;38.40;;;;;;5093414;28;20795;-73
2022/03/25 10:38:44;;;;;;;53.10;48.50;;;15.50;38.00;;;;;;5093210;28;20450;-73
2022/03/25 10:41:13;;;;;;;54.20;48.90;;;15.60;37.80;;;;;;5093041;28;20465;-73
2022/03/25 10:43:53;;;;;;;55.00;49.87;;;15.50;38.80;;;;;;5092986;28;20975;-73
2022/03/25 10:46:28;;;;;;;54.40;49.40;;;15.50;38.60;;;;;;5093218;28;20460;-73
2022/03/25 10:48:56;;;;;;;50.23;45.90;;;15.60;38.40;;;;;;5092968;28;20457;-73
2022/03/25 10:51:23;;;;;;;51.30;46.50;;;15.60;38.10;;;;;;5092757;28;20940;-73
2022/03/25 10:53:57;;;;;;;53.20;48.30;;;15.70;37.80;;;;;;5093045;28;20466;-73
2022/03/25 10:56:24;;;;;;;52.57;47.77;;;15.70;37.80;;;;;;5092621;28;20454;-73
2022/03/25 10:58:53;;;;;;;54.87;49.90;;;15.70;38.10;;;;;;5092912;28;20450;-73
2022/03/25 11:01:21;;;;;;;52.83;48.03;;;15.70;38.40;;;;;;5092529;28;20892;-73
2022/03/25 11:03:50;;;;;;;52.00;47.27;;;15.80;38.90;;;;;;5092518;28;20975;-73
2022/03/25 11:06:19;;;;;;;53.17;48.47;;;15.90;38.10;;;;;;5092618;28;20518;-73
2022/03/25 11:08:47;;;;;;;51.17;46.60;;;16.00;37.90;;;;;;5092710;28;20464;-73
2022/03/25 11:11:17;;;;;;;52.97;47.77;;;16.10;38.10;;;;;;5092600;28;20538;-73
2022/03/25 11:13:45;;;;;;;54.13;48.30;;;16.20;38.80;;;;;;5092653;28;20469;-73
2022/03/25 11:16:16;;;;;;;55.80;50.43;;;16.30;38.40;;;;;;5092807;28;20529;-73
2022/03/25 11:18:44;;;;;;;54.57;49.00;;;16.30;38.10;;;;;;5092514;28;20472;-73
2022/03/25 11:21:13;;;;;;;53.73;48.33;;;16.50;38.30;;;;;;5092568;28;20446;-73
2022/03/25 11:23:45;;;;;;;52.47;47.63;;;16.40;38.30;;;;;;5092569;28;20584;-73
2022/03/25 11:26:15;;;;;;;52.83;47.93;;;16.40;37.60;;;;;;5092589;28;20460;-73
2022/03/25 11:28:44;;;;;;;50.97;46.37;;;16.50;37.50;;;;;;5092836;28;20454;-73
2022/03/25 11:31:11;;;;;;;52.13;47.70;;;16.60;36.80;;;;;;5092573;28;20555;-73
2022/03/25 11:34:09;;;;;;;54.73;49.23;;;16.80;36.90;;;;;;5092602;28;20472;-73
2022/03/25 11:36:40;;;;;;;49.73;45.30;;;16.90;37.00;;;;;;5092883;28;20862;-73
2022/03/25 11:39:27;;;;;;;52.17;47.07;;;16.90;36.00;;;;;;5092495;28;20457;-73
2022/03/25 11:42:02;;;;;;;49.40;44.80;;;17.00;35.80;;;;;;5093093;28;20881;-73
2022/03/25 11:44:29;;;;;;;53.17;48.23;;;17.00;35.90;;;;;;5092442;28;20995;-73
2022/03/25 11:47:17;;;;;;;53.20;48.37;;;17.20;36.10;;;;;;5092435;28;20459;-74
2022/03/25 11:49:46;;;;;;;52.27;47.47;;;17.20;36.60;;;;;;5092131;28;20819;-74
2022/03/25 11:52:33;;;;;;;54.23;49.37;;;17.50;35.60;;;;;;5092326;28;20466;-73
2022/03/25 11:55:02;;;;;;;50.80;46.50;;;17.50;35.60;;;;;;5092096;28;20452;-74
2022/03/25 11:57:30;;;;;;;51.67;47.10;;;17.60;35.50;;;;;;5092254;28;20457;-74
2022/03/25 11:59:59;;;;;;;52.20;47.63;;;17.70;35.20;;;;;;5092173;28;20449;-74
2022/03/25 12:02:29;;;;;;;50.87;45.93;;;17.80;35.10;;;;;;5092137;28;20590;-73
2022/03/25 12:04:57;;;;;;;49.60;45.23;;;17.90;34.90;;;;;;5092399;28;20457;-73
2022/03/25 12:07:24;;;;;;;52.20;47.20;;;17.90;34.20;;;;;;5092276;28;20507;-73
2022/03/25 12:09:51;;;;;;;51.43;46.90;;;17.90;34.70;;;;;;5092043;28;20534;-71
2022/03/25 12:12:19;;;;;;;54.27;49.43;;;18.00;34.50;;;;;;5092060;28;20885;-71
2022/03/25 12:15:10;;;;;;;52.07;47.53;;;17.80;35.20;;;;;;5092192;28;20456;-73
2022/03/25 12:17:37;;;;;;;50.07;45.70;;;17.90;34.70;;;;;;5093249;28;20448;-73
2022/03/25 12:20:05;;;;;;;52.67;48.07;;;18.00;34.50;;;;;;5095536;28;20826;-73
2022/03/25 12:22:36;;;;;;;49.60;44.90;;;18.30;33.70;;;;;;5095692;28;20546;-73
2022/03/25 12:25:31;;;;;;;52.97;48.30;;;18.30;33.80;;;;;;5095766;28;20485;-73
2022/03/25 12:27:59;;;;;;;53.70;48.70;;;18.30;34.20;;;;;;5080309;28;20951;-74
2022/03/25 12:30:36;;;;;;;52.73;48.00;;;18.20;35.60;;;;;;5095725;28;20497;-73
2022/03/25 12:33:07;;;;;;;50.10;45.80;;;18.40;35.60;;;;;;5096059;28;20465;-73
2022/03/25 12:35:37;;;;;;;49.77;45.47;;;18.40;35.10;;;;;;5095651;28;20449;-73
2022/03/25 12:38:20;;;;;;;48.83;44.63;;;18.50;34.40;;;;;;5095640;28;20536;-73
2022/03/25 12:40:48;;;;;;;47.63;43.53;;;18.70;33.50;;;;;;5095378;28;20446;-73
2022/03/25 12:43:17;;;;;;;48.70;44.50;;;18.80;33.60;;;;;;5095273;28;20971;-73
2022/03/25 12:45:45;;;;;;;52.03;47.80;;;18.80;33.90;;;;;;5095255;28;20460;-74